Terminal Aerodrome Forecast
Issued by NWS

Home | Current Version | Previous Version | Graphics & Text | Print | Product List | Glossary On
Versions: 1 2 3 4 5 6 7 8 9 10 11 12 13 14 15 16 17 18 19 20 21 22 23 24 25 26 27 28 29 30 31
777
FTUS45 KGGW 211120
TAFOLF
TAF
KOLF 211120Z 2112/2212 26005KT 4SM BR FEW020
     FM211900 26008KT P6SM FEW060
     FM220300 VRB04KT 5SM BR FEW030=

USA.gov is the U.S. government's official web portal to all federal, state and local government web resources and services.